Time;durP1;ratioP1;P1;durP2;ratioP2;P2;SDS_P1;SDS_P2;PMS_P1;PMS_P2;Temp;Humidity;BMP_temperature;BMP_pressure;BME280_temperature;BME280_humidity;BME280_pressure;Samples;Min_cycle;Max_cycle;Signal;HPM_P1;HPM_P2
2022/12/17 13:06:41;;;;;;;95.33;47.60;;;;;;;;;;5076727;28;20497;-68
2022/12/17 13:09:16;;;;;;;85.83;45.07;;;;;;;;;;5076337;28;20898;-70
2022/12/17 13:11:45;;;;;;;92.13;47.47;;;;;;;;;;5076810;28;20431;-70
2022/12/17 13:14:32;;;;;;;93.00;50.90;;;;;;;;;;5076254;28;20408;-70
2022/12/17 13:17:06;;;;;;;94.20;45.47;;;;;;;;;;5057969;28;20414;-68
2022/12/17 13:19:39;;;;;;;86.97;47.13;;;;;;;;;;5076469;28;20491;-68
2022/12/17 13:22:11;;;;;;;83.07;46.10;;;;;;;;;;5058292;28;20438;-68
2022/12/17 13:24:37;;;;;;;75.77;42.03;;;;;;;;;;5076276;28;20947;-68
2022/12/17 13:27:04;;;;;;;74.80;39.37;;;;;;;;;;5076619;28;20456;-70
2022/12/17 13:29:32;;;;;;;66.97;36.97;;;;;;;;;;5076484;28;20415;-68
2022/12/17 13:32:01;;;;;;;70.00;37.57;;;;;;;;;;5058073;28;20437;-71
2022/12/17 13:34:49;;;;;;;68.07;38.33;;;;;;;;;;5076053;28;20779;-70
2022/12/17 13:37:51;;;;;;;73.00;38.77;;;;;;;;;;5058706;28;20416;-69
2022/12/17 13:40:17;;;;;;;66.83;37.00;;;;;;;;;;5015131;28;20446;-68
2022/12/17 13:42:44;;;;;;;71.90;39.47;;;;;;;;;;5063830;28;20519;-68
2022/12/17 13:45:18;;;;;;;79.43;44.07;;;;;;;;;;5076549;28;20592;-67
2022/12/17 13:47:52;;;;;;;68.93;37.17;;;;;;;;;;5076271;28;20513;-69
2022/12/17 13:50:20;;;;;;;62.27;35.53;;;;;;;;;;5076464;28;20397;-68
2022/12/17 13:52:46;;;;;;;64.33;38.10;;;;;;;;;;5058286;28;20431;-70
2022/12/17 13:55:32;;;;;;;65.87;36.70;;;;;;;;;;5076004;28;20433;-68
2022/12/17 13:57:58;;;;;;;72.90;41.80;;;;;;;;;;5075749;28;20195;-68
2022/12/17 14:00:27;;;;;;;67.17;37.43;;;;;;;;;;5075524;28;20773;-69
2022/12/17 14:02:53;;;;;;;63.97;37.27;;;;;;;;;;5075733;28;20507;-69
2022/12/17 14:05:28;;;;;;;64.87;36.03;;;;;;;;;;5076415;28;20412;-70
2022/12/17 14:07:58;;;;;;;64.10;36.27;;;;;;;;;;5058101;28;20460;-70
2022/12/17 14:10:24;;;;;;;76.37;43.93;;;;;;;;;;5076081;28;20415;-69
2022/12/17 14:12:50;;;;;;;68.07;38.30;;;;;;;;;;5057605;28;20520;-69
2022/12/17 14:15:30;;;;;;;63.20;36.13;;;;;;;;;;5058069;28;20419;-68
2022/12/17 14:17:58;;;;;;;72.93;41.33;;;;;;;;;;5078369;28;20397;-68
2022/12/17 14:20:34;;;;;;;70.57;40.97;;;;;;;;;;5057923;28;20846;-68
2022/12/17 14:23:18;;;;;;;61.47;33.63;;;;;;;;;;5057490;28;20441;-65
2022/12/17 14:25:44;;;;;;;83.97;47.87;;;;;;;;;;5075931;28;20402;-70
2022/12/17 14:28:22;;;;;;;99.37;51.90;;;;;;;;;;5057417;28;20990;-69
2022/12/17 14:30:48;;;;;;;76.73;44.87;;;;;;;;;;5075807;28;20424;-69
2022/12/17 14:33:24;;;;;;;77.70;43.17;;;;;;;;;;5057723;28;20438;-70
2022/12/17 14:35:52;;;;;;;78.33;43.67;;;;;;;;;;5057477;28;20417;-71
2022/12/17 14:38:18;;;;;;;79.83;45.90;;;;;;;;;;5057392;28;20418;-71
2022/12/17 14:40:44;;;;;;;67.97;40.77;;;;;;;;;;5075176;28;20415;-70
2022/12/17 14:43:12;;;;;;;84.00;43.20;;;;;;;;;;5074971;28;20512;-70
2022/12/17 14:46:19;;;;;;;72.97;45.20;;;;;;;;;;5056894;28;20211;-71
2022/12/17 14:48:59;;;;;;;85.67;46.43;;;;;;;;;;5074869;28;20427;-70
2022/12/17 14:51:27;;;;;;;82.07;46.97;;;;;;;;;;5074735;28;20466;-70
2022/12/17 14:53:53;;;;;;;86.40;47.00;;;;;;;;;;5057169;28;20421;-71
2022/12/17 14:56:22;;;;;;;83.53;46.13;;;;;;;;;;5074655;28;20494;-70
2022/12/17 14:58:48;;;;;;;84.30;48.23;;;;;;;;;;5076163;28;20178;-70
2022/12/17 15:01:15;;;;;;;88.50;50.23;;;;;;;;;;5075752;28;20413;-70
2022/12/17 15:03:42;;;;;;;82.80;46.73;;;;;;;;;;5075445;28;20300;-71
2022/12/17 15:06:12;;;;;;;79.67;46.27;;;;;;;;;;5075315;28;20980;-70
2022/12/17 15:08:43;;;;;;;81.63;46.13;;;;;;;;;;5075071;28;20787;-71
2022/12/17 15:11:12;;;;;;;79.90;45.37;;;;;;;;;;5074877;28;20408;-70
2022/12/17 15:13:38;;;;;;;76.23;46.73;;;;;;;;;;5074829;28;20455;-70
2022/12/17 15:16:05;;;;;;;89.97;48.83;;;;;;;;;;5056747;28;20857;-70
2022/12/17 15:18:30;;;;;;;92.27;47.87;;;;;;;;;;5074945;28;20496;-70
2022/12/17 15:20:56;;;;;;;90.87;48.37;;;;;;;;;;5074798;28;20443;-70
2022/12/17 15:23:23;;;;;;;96.97;51.07;;;;;;;;;;5056898;28;20204;-70
2022/12/17 15:25:50;;;;;;;98.10;47.83;;;;;;;;;;5074872;28;20180;-70
2022/12/17 15:28:16;;;;;;;103.13;52.47;;;;;;;;;;5074648;28;20516;-70
2022/12/17 15:30:42;;;;;;;177.23;86.90;;;;;;;;;;5075330;28;20863;-70
2022/12/17 15:33:09;;;;;;;96.90;50.83;;;;;;;;;;5056928;28;20440;-70
2022/12/17 15:35:35;;;;;;;97.07;50.77;;;;;;;;;;5075206;28;20420;-71
2022/12/17 15:38:01;;;;;;;79.47;45.00;;;;;;;;;;5056413;28;20420;-69
2022/12/17 15:40:27;;;;;;;75.63;43.73;;;;;;;;;;5059681;28;20502;-71
2022/12/17 15:43:12;;;;;;;63.07;39.00;;;;;;;;;;5061352;28;20986;-70
2022/12/17 15:45:38;;;;;;;59.20;37.13;;;;;;;;;;5079444;28;20168;-70
2022/12/17 15:48:04;;;;;;;61.70;35.87;;;;;;;;;;5078604;28;20456;-69
2022/12/17 15:50:30;;;;;;;67.20;40.60;;;;;;;;;;5079373;28;20254;-71
2022/12/17 15:52:56;;;;;;;63.53;36.30;;;;;;;;;;5060536;28;20443;-69
2022/12/17 15:55:22;;;;;;;60.40;37.80;;;;;;;;;;5078506;28;20464;-69
2022/12/17 15:57:48;;;;;;;63.10;38.20;;;;;;;;;;5078472;28;20604;-69
2022/12/17 16:00:14;;;;;;;76.50;41.93;;;;;;;;;;5078720;28;20422;-70
2022/12/17 16:02:40;;;;;;;63.50;38.10;;;;;;;;;;5078188;28;20208;-71
2022/12/17 16:05:06;;;;;;;68.83;39.00;;;;;;;;;;5060465;28;20433;-68
2022/12/17 16:07:32;;;;;;;73.97;42.77;;;;;;;;;;5078387;28;20206;-70
2022/12/17 16:09:58;;;;;;;82.00;44.40;;;;;;;;;;5060836;28;20556;-70
2022/12/17 16:12:24;;;;;;;87.53;45.90;;;;;;;;;;5078782;28;20480;-70
2022/12/17 16:14:50;;;;;;;96.00;48.10;;;;;;;;;;5079321;28;20173;-69
2022/12/17 16:17:16;;;;;;;88.57;51.37;;;;;;;;;;5079084;28;20257;-69
2022/12/17 16:19:42;;;;;;;90.40;50.43;;;;;;;;;;5078576;28;20230;-70
2022/12/17 16:22:08;;;;;;;105.23;60.77;;;;;;;;;;5060668;28;20207;-71
2022/12/17 16:24:34;;;;;;;85.17;46.80;;;;;;;;;;5078867;28;20177;-69
2022/12/17 16:27:00;;;;;;;80.97;44.87;;;;;;;;;;5078717;28;20549;-70
2022/12/17 16:29:26;;;;;;;123.80;63.70;;;;;;;;;;5082354;28;20512;-69
2022/12/17 16:31:52;;;;;;;92.63;51.63;;;;;;;;;;5079018;28;20560;-71
2022/12/17 16:34:18;;;;;;;73.50;42.10;;;;;;;;;;5060139;28;20543;-71
2022/12/17 16:36:44;;;;;;;73.27;40.17;;;;;;;;;;5077831;28;20212;-70
2022/12/17 16:39:14;;;;;;;73.00;39.60;;;;;;;;;;5059884;28;20179;-71
2022/12/17 16:41:40;;;;;;;70.80;39.83;;;;;;;;;;5060218;28;20173;-70
2022/12/17 16:44:06;;;;;;;70.77;42.10;;;;;;;;;;5077771;28;20417;-70
2022/12/17 16:46:33;;;;;;;78.33;43.80;;;;;;;;;;5059842;28;20596;-71
2022/12/17 16:49:03;;;;;;;97.30;54.70;;;;;;;;;;5061660;28;20231;-71
2022/12/17 16:51:29;;;;;;;94.17;55.77;;;;;;;;;;5081600;28;20396;-69
2022/12/17 16:53:55;;;;;;;100.67;59.47;;;;;;;;;;5063706;28;20870;-70
2022/12/17 16:56:28;;;;;;;94.53;53.90;;;;;;;;;;5078696;28;20542;-69
2022/12/17 16:58:54;;;;;;;96.83;54.17;;;;;;;;;;5060502;28;20448;-69
2022/12/17 17:01:24;;;;;;;105.77;61.33;;;;;;;;;;5079507;28;20424;-68
2022/12/17 17:03:50;;;;;;;107.47;62.30;;;;;;;;;;5078405;28;20962;-70
2022/12/17 17:06:17;;;;;;;105.00;56.93;;;;;;;;;;5077834;28;20422;-70
2022/12/17 17:08:43;;;;;;;92.20;52.33;;;;;;;;;;5060231;28;20908;-70
2022/12/17 17:11:20;;;;;;;94.63;54.43;;;;;;;;;;5077790;28;20853;-71
2022/12/17 17:13:46;;;;;;;100.50;55.47;;;;;;;;;;5077854;28;20508;-70
2022/12/17 17:16:12;;;;;;;92.43;56.17;;;;;;;;;;5077590;28;20418;-70
2022/12/17 17:18:38;;;;;;;107.97;61.13;;;;;;;;;;5077987;28;20402;-70
2022/12/17 17:21:13;;;;;;;114.17;62.07;;;;;;;;;;5077580;28;20478;-69
2022/12/17 17:23:39;;;;;;;103.53;60.33;;;;;;;;;;5059321;28;20440;-70
2022/12/17 17:26:05;;;;;;;101.73;59.17;;;;;;;;;;5059705;28;20416;-71
2022/12/17 17:28:31;;;;;;;103.40;60.27;;;;;;;;;;5059634;28;20414;-70
2022/12/17 17:31:01;;;;;;;93.67;56.27;;;;;;;;;;5077776;28;20292;-69
2022/12/17 17:33:34;;;;;;;101.17;57.00;;;;;;;;;;5077908;28;20461;-70
2022/12/17 17:36:07;;;;;;;103.23;57.93;;;;;;;;;;5060945;28;20970;-71
2022/12/17 17:38:34;;;;;;;122.20;65.27;;;;;;;;;;5077520;28;20426;-70
2022/12/17 17:41:00;;;;;;;121.30;63.53;;;;;;;;;;5076735;28;20417;-70
2022/12/17 17:43:26;;;;;;;126.67;66.40;;;;;;;;;;5076946;28;20533;-70
2022/12/17 17:45:52;;;;;;;112.60;60.47;;;;;;;;;;5076579;28;20461;-70
2022/12/17 17:48:18;;;;;;;139.50;70.50;;;;;;;;;;5058575;28;20463;-70
2022/12/17 17:50:56;;;;;;;111.57;60.97;;;;;;;;;;5058967;28;20178;-71
2022/12/17 17:53:22;;;;;;;193.70;94.27;;;;;;;;;;5076623;28;20426;-70
2022/12/17 17:55:47;;;;;;;291.43;127.77;;;;;;;;;;5076644;28;20408;-70
2022/12/17 17:58:13;;;;;;;308.93;133.50;;;;;;;;;;5059148;28;20597;-70
2022/12/17 18:00:39;;;;;;;305.30;133.77;;;;;;;;;;5077401;28;20202;-70
2022/12/17 18:03:05;;;;;;;291.97;127.50;;;;;;;;;;5057305;28;20229;-70
2022/12/17 18:05:36;;;;;;;243.13;111.63;;;;;;;;;;5076596;28;20570;-70
2022/12/17 18:08:02;;;;;;;181.27;90.17;;;;;;;;;;5077015;28;20233;-70
2022/12/17 18:10:28;;;;;;;196.70;98.00;;;;;;;;;;5077163;28;20408;-70
2022/12/17 18:15:39;;;;;;;186.23;91.07;;;;;;;;;;5077262;28;20420;-70
2022/12/17 18:18:05;;;;;;;158.30;77.53;;;;;;;;;;5077135;28;20412;-70
2022/12/17 18:20:31;;;;;;;152.23;74.53;;;;;;;;;;5076232;28;20183;-70
2022/12/17 18:22:57;;;;;;;143.57;70.97;;;;;;;;;;5059402;28;20301;-70
2022/12/17 18:25:24;;;;;;;143.70;67.10;;;;;;;;;;5059530;28;20413;-70
2022/12/17 18:27:53;;;;;;;161.07;73.03;;;;;;;;;;5076441;28;20464;-69
2022/12/17 18:30:19;;;;;;;160.37;77.90;;;;;;;;;;5059000;28;20820;-70
2022/12/17 18:32:45;;;;;;;128.17;61.70;;;;;;;;;;5076162;28;20557;-70
2022/12/17 18:35:11;;;;;;;141.07;68.83;;;;;;;;;;5076395;28;20432;-70
2022/12/17 18:37:37;;;;;;;140.87;66.53;;;;;;;;;;5059027;28;20422;-69
2022/12/17 18:40:04;;;;;;;123.23;60.43;;;;;;;;;;5066595;28;20411;-69
2022/12/17 18:45:15;;;;;;;130.77;60.33;;;;;;;;;;5076908;28;20515;-69
2022/12/17 18:47:43;;;;;;;110.33;53.77;;;;;;;;;;5076459;28;20568;-70
2022/12/17 18:50:09;;;;;;;121.83;57.47;;;;;;;;;;5057886;28;20473;-69
2022/12/17 18:52:35;;;;;;;105.93;50.80;;;;;;;;;;5058296;28;20447;-70
2022/12/17 18:55:01;;;;;;;94.40;46.03;;;;;;;;;;5058394;28;20797;-70
2022/12/17 18:57:27;;;;;;;66.37;38.33;;;;;;;;;;5076141;28;20190;-71
2022/12/17 18:59:53;;;;;;;70.60;38.80;;;;;;;;;;5076214;28;20415;-69
2022/12/17 19:02:19;;;;;;;65.77;36.60;;;;;;;;;;5076123;28;20211;-70
2022/12/17 19:04:45;;;;;;;60.50;35.37;;;;;;;;;;5058463;28;20314;-68
2022/12/17 19:07:11;;;;;;;65.70;36.27;;;;;;;;;;5076348;28;20216;-69
2022/12/17 19:09:39;;;;;;;59.93;35.50;;;;;;;;;;5058196;28;20211;-69
2022/12/17 19:12:06;;;;;;;60.03;35.17;;;;;;;;;;5076093;28;20416;-69
2022/12/17 19:14:32;;;;;;;61.87;34.73;;;;;;;;;;5075520;28;20411;-69
2022/12/17 19:16:59;;;;;;;61.63;34.87;;;;;;;;;;5057229;28;20425;-69
2022/12/17 19:19:26;;;;;;;61.37;35.77;;;;;;;;;;5076393;28;20773;-69
2022/12/17 19:21:53;;;;;;;59.00;34.63;;;;;;;;;;5075258;28;20430;-69
2022/12/17 19:24:20;;;;;;;58.33;33.97;;;;;;;;;;5074986;28;20458;-69
2022/12/17 19:26:47;;;;;;;54.13;32.57;;;;;;;;;;5075237;28;21038;-71
2022/12/17 19:29:14;;;;;;;62.00;34.47;;;;;;;;;;5057101;28;20469;-69
2022/12/17 19:31:40;;;;;;;58.93;34.43;;;;;;;;;;5057360;28;20426;-71
2022/12/17 19:34:07;;;;;;;55.97;34.03;;;;;;;;;;5075432;28;20405;-71
2022/12/17 19:36:34;;;;;;;56.77;33.10;;;;;;;;;;5057098;28;20923;-70
2022/12/17 19:39:01;;;;;;;54.83;32.83;;;;;;;;;;5075402;28;20409;-70
2022/12/17 19:41:28;;;;;;;52.43;32.17;;;;;;;;;;5057793;28;20932;-70
2022/12/17 19:43:58;;;;;;;55.47;32.77;;;;;;;;;;5058104;28;20423;-70
2022/12/17 19:46:25;;;;;;;55.70;32.63;;;;;;;;;;5058448;28;20777;-71
2022/12/17 19:48:51;;;;;;;54.03;33.10;;;;;;;;;;5057882;28;20415;-70
2022/12/17 19:51:18;;;;;;;57.53;33.93;;;;;;;;;;5076597;28;20414;-70
2022/12/17 19:53:45;;;;;;;55.37;32.70;;;;;;;;;;5059571;28;20443;-71
2022/12/17 19:56:27;;;;;;;58.17;33.83;;;;;;;;;;5077665;28;20409;-70
2022/12/17 19:58:54;;;;;;;54.40;32.73;;;;;;;;;;5076149;28;20434;-70
2022/12/17 20:01:23;;;;;;;59.70;35.80;;;;;;;;;;5075407;28;20896;-70
2022/12/17 20:03:49;;;;;;;57.87;34.73;;;;;;;;;;5057225;28;20446;-70
2022/12/17 20:06:16;;;;;;;60.10;34.33;;;;;;;;;;5074920;28;20406;-71
2022/12/17 20:08:42;;;;;;;66.40;35.70;;;;;;;;;;5075316;28;20441;-70
2022/12/17 20:13:59;;;;;;;57.53;33.07;;;;;;;;;;5075771;28;20380;-70
2022/12/17 20:16:25;;;;;;;58.23;32.60;;;;;;;;;;5057666;28;20417;-71
2022/12/17 20:18:51;;;;;;;56.83;33.27;;;;;;;;;;5075573;28;20412;-70
2022/12/17 20:21:18;;;;;;;54.80;32.27;;;;;;;;;;5075870;28;20495;-71
2022/12/17 20:23:50;;;;;;;59.30;32.77;;;;;;;;;;5075494;28;20663;-70
2022/12/17 20:26:16;;;;;;;56.07;31.73;;;;;;;;;;5075943;28;20467;-70
2022/12/17 20:28:43;;;;;;;53.13;30.57;;;;;;;;;;5061714;28;20480;-70
2022/12/17 20:31:09;;;;;;;53.33;33.07;;;;;;;;;;5062409;28;20418;-70
2022/12/17 20:33:35;;;;;;;55.87;32.97;;;;;;;;;;5069515;28;20440;-70
2022/12/17 20:36:05;;;;;;;50.80;29.87;;;;;;;;;;5089705;28;20410;-71
2022/12/17 20:38:31;;;;;;;46.67;27.43;;;;;;;;;;5071136;28;20431;-71
2022/12/17 20:40:57;;;;;;;45.17;27.60;;;;;;;;;;5073967;28;20440;-70
2022/12/17 20:43:23;;;;;;;48.23;27.37;;;;;;;;;;5073152;28;20288;-70
2022/12/17 20:45:49;;;;;;;43.53;27.30;;;;;;;;;;5072115;28;20780;-69
2022/12/17 20:48:15;;;;;;;47.43;28.57;;;;;;;;;;5087106;28;20467;-72
2022/12/17 20:50:42;;;;;;;45.00;27.27;;;;;;;;;;5086818;28;20410;-69
2022/12/17 20:53:08;;;;;;;44.17;27.73;;;;;;;;;;5085867;28;20435;-70
2022/12/17 20:55:34;;;;;;;51.40;29.03;;;;;;;;;;5061997;28;20540;-69
2022/12/17 20:58:00;;;;;;;47.27;29.30;;;;;;;;;;5059987;28;20480;-70
2022/12/17 21:00:26;;;;;;;65.23;40.30;;;;;;;;;;5060183;28;20821;-69
2022/12/17 21:02:52;;;;;;;64.80;39.00;;;;;;;;;;5059612;28;20223;-70
2022/12/17 21:05:18;;;;;;;62.70;36.37;;;;;;;;;;5078028;28;20219;-70
2022/12/17 21:07:44;;;;;;;54.03;32.73;;;;;;;;;;5077592;28;20205;-70
2022/12/17 21:10:10;;;;;;;52.43;33.57;;;;;;;;;;5077490;28;20414;-69
2022/12/17 21:15:21;;;;;;;48.20;29.20;;;;;;;;;;5077987;28;20384;-69
2022/12/17 21:17:47;;;;;;;41.33;26.83;;;;;;;;;;5077124;28;20417;-70
2022/12/17 21:20:12;;;;;;;47.00;28.20;;;;;;;;;;5076957;28;20535;-70
2022/12/17 21:22:39;;;;;;;43.63;27.87;;;;;;;;;;5077068;28;20522;-70
2022/12/17 21:25:06;;;;;;;44.47;27.33;;;;;;;;;;5059476;28;20181;-69
2022/12/17 21:27:32;;;;;;;41.17;25.57;;;;;;;;;;5076866;28;21018;-70
2022/12/17 21:29:57;;;;;;;43.67;25.77;;;;;;;;;;5059405;28;20514;-70
2022/12/17 21:32:23;;;;;;;38.10;24.23;;;;;;;;;;5058699;28;20205;-70
2022/12/17 21:34:49;;;;;;;46.50;25.40;;;;;;;;;;5077355;28;20180;-72
2022/12/17 21:37:15;;;;;;;39.87;24.43;;;;;;;;;;5077636;28;20185;-72
2022/12/17 21:39:42;;;;;;;38.67;23.60;;;;;;;;;;5059563;28;20242;-69
2022/12/17 21:44:53;;;;;;;39.67;24.77;;;;;;;;;;5078026;28;20408;-72
2022/12/17 21:47:19;;;;;;;43.73;27.27;;;;;;;;;;5058953;28;20471;-70
2022/12/17 21:49:45;;;;;;;37.27;25.37;;;;;;;;;;5077373;28;20199;-70
2022/12/17 21:52:11;;;;;;;49.17;27.17;;;;;;;;;;5075939;28;20926;-70
2022/12/17 21:54:37;;;;;;;50.30;29.20;;;;;;;;;;5076502;28;20637;-70
2022/12/17 21:57:03;;;;;;;78.07;36.03;;;;;;;;;;5079739;28;20202;-72
2022/12/17 21:59:29;;;;;;;86.03;39.73;;;;;;;;;;5082251;28;20468;-69
2022/12/17 22:01:55;;;;;;;67.70;36.90;;;;;;;;;;5083433;28;20215;-71
2022/12/17 22:04:21;;;;;;;84.70;40.77;;;;;;;;;;5058297;28;20177;-70
2022/12/17 22:06:47;;;;;;;81.43;39.40;;;;;;;;;;5075528;28;20476;-69
2022/12/17 22:09:13;;;;;;;64.37;30.93;;;;;;;;;;5076170;28;20854;-69
2022/12/17 22:11:39;;;;;;;68.73;32.93;;;;;;;;;;5057793;28;20180;-71
2022/12/17 22:14:05;;;;;;;62.80;32.53;;;;;;;;;;5075769;28;20183;-70
2022/12/17 22:16:37;;;;;;;44.03;25.23;;;;;;;;;;5076105;28;20417;-69
2022/12/17 22:19:06;;;;;;;38.13;23.13;;;;;;;;;;5075671;28;20772;-69
2022/12/17 22:21:34;;;;;;;42.97;26.70;;;;;;;;;;5075914;28;20406;-69
2022/12/17 22:24:00;;;;;;;40.17;24.33;;;;;;;;;;5076059;28;20421;-70
2022/12/17 22:26:26;;;;;;;37.37;23.07;;;;;;;;;;5076262;28;20409;-69
2022/12/17 22:28:52;;;;;;;34.87;22.20;;;;;;;;;;5075841;28;20181;-70
2022/12/17 22:34:06;;;;;;;41.07;22.67;;;;;;;;;;5075889;28;20172;-70
2022/12/17 22:36:32;;;;;;;40.17;23.30;;;;;;;;;;5075392;28;20768;-70
2022/12/17 22:38:59;;;;;;;42.07;25.33;;;;;;;;;;5057304;28;20416;-70
2022/12/17 22:44:10;;;;;;;51.73;28.87;;;;;;;;;;5076005;28;20791;-71
2022/12/17 22:46:36;;;;;;;48.43;27.43;;;;;;;;;;5075022;28;20455;-71
2022/12/17 22:49:02;;;;;;;42.03;25.43;;;;;;;;;;5074749;28;20185;-70
2022/12/17 22:51:28;;;;;;;47.20;26.37;;;;;;;;;;5075004;28;20415;-70
2022/12/17 22:53:54;;;;;;;43.67;24.53;;;;;;;;;;5074713;28;20254;-70
2022/12/17 22:56:20;;;;;;;38.53;23.43;;;;;;;;;;5074684;28;20182;-69
2022/12/17 22:58:46;;;;;;;35.33;22.40;;;;;;;;;;5056585;28;20411;-69
2022/12/17 23:01:12;;;;;;;34.97;23.10;;;;;;;;;;5056654;28;20789;-70
2022/12/17 23:03:39;;;;;;;30.67;19.33;;;;;;;;;;5076330;28;20461;-69
2022/12/17 23:06:08;;;;;;;41.73;23.97;;;;;;;;;;5082099;28;20175;-70
2022/12/17 23:08:35;;;;;;;52.50;27.17;;;;;;;;;;5057528;28;20530;-71
2022/12/17 23:11:07;;;;;;;88.03;39.37;;;;;;;;;;5075929;28;20412;-71
2022/12/17 23:13:33;;;;;;;119.37;54.00;;;;;;;;;;5081977;28;20426;-70
2022/12/17 23:15:59;;;;;;;125.87;54.60;;;;;;;;;;5084394;28;20766;-70
2022/12/17 23:18:25;;;;;;;81.17;40.33;;;;;;;;;;5077055;28;20453;-69
2022/12/17 23:20:51;;;;;;;73.27;37.90;;;;;;;;;;5083236;28;20189;-70
2022/12/17 23:23:17;;;;;;;50.80;28.60;;;;;;;;;;5079294;28;20210;-70
2022/12/17 23:25:43;;;;;;;48.47;26.47;;;;;;;;;;5076330;28;20659;-69
2022/12/17 23:28:09;;;;;;;49.07;26.23;;;;;;;;;;5081592;28;20695;-70
2022/12/17 23:30:38;;;;;;;45.30;24.53;;;;;;;;;;5076796;28;20628;-69
2022/12/17 23:33:04;;;;;;;46.83;26.00;;;;;;;;;;5056546;28;20227;-70
2022/12/17 23:35:30;;;;;;;48.40;25.63;;;;;;;;;;5057890;28;20415;-70
2022/12/17 23:37:56;;;;;;;44.30;22.63;;;;;;;;;;5076562;28;20417;-70
2022/12/17 23:40:24;;;;;;;35.73;21.40;;;;;;;;;;5084782;28;20957;-69
2022/12/17 23:42:50;;;;;;;27.73;17.37;;;;;;;;;;5082136;28;20288;-70
2022/12/17 23:45:16;;;;;;;27.00;16.40;;;;;;;;;;5065305;28;20426;-69
2022/12/17 23:47:41;;;;;;;24.17;14.80;;;;;;;;;;5060015;28;20466;-69
2022/12/17 23:50:08;;;;;;;23.43;15.03;;;;;;;;;;5074737;28;20179;-69
2022/12/17 23:52:34;;;;;;;20.77;14.23;;;;;;;;;;5074281;28;20199;-69
2022/12/17 23:55:00;;;;;;;23.47;15.60;;;;;;;;;;5056515;28;20821;-70
2022/12/17 23:57:26;;;;;;;20.60;14.47;;;;;;;;;;5056536;28;20599;-69
2022/12/17 23:59:52;;;;;;;23.83;14.73;;;;;;;;;;5074056;28;20413;-69
